Time;durP1;ratioP1;P1;durP2;ratioP2;P2;SDS_P1;SDS_P2;PMS_P1;PMS_P2;Temp;Humidity;BMP_temperature;BMP_pressure;BME280_temperature;BME280_humidity;BME280_pressure;Samples;Min_cycle;Max_cycle;Signal;HPM_P1;HPM_P2
2022/01/16 00:01:21;;;;;;;;;;;;;;;0.37;71.03;99568.36;1668515;85;20096;-67
2022/01/16 00:06:20;;;;;;;;;;;;;;;0.39;71.48;99562.70;1674365;85;21019;-67
2022/01/16 00:08:46;;;;;;;;;;;;;;;0.38;71.35;99559.72;1672900;85;21660;-68
2022/01/16 00:11:13;;;;;;;;;;;;;;;0.37;72.07;99564.30;1660831;85;20180;-68
2022/01/16 00:13:39;;;;;;;;;;;;;;;0.37;73.00;99562.95;1672789;85;20128;-68
2022/01/16 00:16:05;;;;;;;;;;;;;;;0.36;71.92;99565.38;1668801;85;20415;-68
2022/01/16 00:18:42;;;;;;;;;;;;;;;0.35;71.46;99578.59;1672383;85;21192;-68
2022/01/16 00:21:00;;;;;;;;;;;;;;;0.35;71.93;99571.84;1674741;85;20089;-68
2022/01/16 00:23:28;;;;;;;;;;;;;;;0.36;71.23;99569.95;1671076;85;20131;-68
2022/01/16 00:25:56;;;;;;;;;;;;;;;0.36;70.98;99576.17;1670808;84;20155;-68
2022/01/16 00:28:23;;;;;;;;;;;;;;;0.33;70.33;99572.62;1674127;85;20573;-67
2022/01/16 00:30:50;;;;;;;;;;;;;;;0.34;71.31;99579.66;1662278;85;21075;-68
2022/01/16 00:33:18;;;;;;;;;;;;;;;0.34;70.29;99593.16;1666378;85;20130;-67
2022/01/16 00:35:44;;;;;;;;;;;;;;;0.32;70.49;99589.88;1674436;85;20092;-68
2022/01/16 00:38:11;;;;;;;;;;;;;;;0.33;70.62;99573.97;1676935;84;20116;-68
2022/01/16 00:40:38;;;;;;;;;;;;;;;0.31;70.71;99558.55;1673541;85;20112;-68
2022/01/16 00:43:04;;;;;;;;;;;;;;;0.30;70.18;99557.73;1676897;85;21899;-68
2022/01/16 00:45:36;;;;;;;;;;;;;;;0.29;70.27;99566.08;1672718;84;20396;-68
2022/01/16 00:48:02;;;;;;;;;;;;;;;0.31;70.24;99574.75;1664816;85;20087;-67
2022/01/16 00:50:29;;;;;;;;;;;;;;;0.32;69.66;99577.73;1667864;85;20100;-68
2022/01/16 00:52:55;;;;;;;;;;;;;;;0.31;69.92;99566.11;1667215;85;20076;-68
2022/01/16 00:55:22;;;;;;;;;;;;;;;0.33;70.36;99571.27;1666968;85;21936;-68
2022/01/16 00:57:48;;;;;;;;;;;;;;;0.34;69.52;99578.30;1673709;85;20113;-68
2022/01/16 01:00:15;;;;;;;;;;;;;;;0.32;69.12;99570.45;1671906;85;20124;-68
2022/01/16 01:02:42;;;;;;;;;;;;;;;0.32;71.48;99571.80;1666100;85;20136;-68
2022/01/16 01:05:08;;;;;;;;;;;;;;;0.34;69.91;99566.16;1671743;85;20423;-68
2022/01/16 01:07:38;;;;;;;;;;;;;;;0.35;69.79;99550.77;1664280;85;21171;-68
2022/01/16 01:10:05;;;;;;;;;;;;;;;0.32;70.27;99560.19;1661153;86;20399;-68
2022/01/16 01:12:53;;;;;;;;;;;;;;;0.31;70.49;99591.77;1665032;85;20142;-68
2022/01/16 01:15:10;;;;;;;;;;;;;;;0.30;70.10;99619.84;1678164;85;20144;-68
2022/01/16 01:17:46;;;;;;;;;;;;;;;0.30;70.28;99585.27;1675502;85;20190;-69
2022/01/16 01:20:17;;;;;;;;;;;;;;;0.29;71.06;99547.18;1668847;85;21207;-68
2022/01/16 01:22:44;;;;;;;;;;;;;;;0.29;70.72;99579.58;1663424;85;20200;-68
2022/01/16 01:25:14;;;;;;;;;;;;;;;0.28;70.24;99609.00;1671493;84;20435;-68
2022/01/16 01:27:41;;;;;;;;;;;;;;;0.26;70.82;99594.39;1661003;85;20120;-68
2022/01/16 01:30:14;;;;;;;;;;;;;;;0.26;71.36;99604.37;1672794;85;20100;-68
2022/01/16 01:32:44;;;;;;;;;;;;;;;0.24;71.59;99601.92;1661378;85;21842;-68
2022/01/16 01:35:12;;;;;;;;;;;;;;;0.23;72.37;99617.84;1667039;85;20184;-68
2022/01/16 01:37:39;;;;;;;;;;;;;;;0.22;72.85;99649.13;1659084;85;20127;-68
2022/01/16 01:40:08;;;;;;;;;;;;;;;0.23;72.81;99592.72;1658344;86;20493;-68
2022/01/16 01:42:42;;;;;;;;;;;;;;;0.21;73.03;99526.82;1668094;85;20181;-68
2022/01/16 01:53:19;;;;;;;;;;;;;;;0.16;72.61;99493.53;1670038;85;20655;-67
2022/01/16 01:55:46;;;;;;;;;;;;;;;0.19;71.99;99491.69;1676361;85;20174;-68
2022/01/16 01:58:14;;;;;;;;;;;;;;;0.20;71.27;99529.77;1647283;85;21179;-68
2022/01/16 02:00:41;;;;;;;;;;;;;;;0.19;71.72;99562.70;1674258;85;20127;-68
2022/01/16 02:03:26;;;;;;;;;;;;;;;0.21;72.38;99557.87;1678188;85;20132;-68
2022/01/16 02:05:45;;;;;;;;;;;;;;;0.22;71.82;99565.44;1668032;85;20847;-68
2022/01/16 02:08:12;;;;;;;;;;;;;;;0.21;71.78;99586.22;1664487;85;20160;-68
2022/01/16 02:10:39;;;;;;;;;;;;;;;0.21;73.43;99603.77;1667914;85;21087;-68
2022/01/16 02:13:08;;;;;;;;;;;;;;;0.23;72.57;99592.72;1671666;85;20101;-68
2022/01/16 02:27:57;;;;;;;;;;;;;;;0.22;71.97;99563.55;1681181;84;20458;-68
2022/01/16 02:31:57;;;;;;;;;;;;;;;0.15;73.36;99579.63;1674562;85;20104;-68
2022/01/16 02:34:35;;;;;;;;;;;;;;;0.11;73.54;99583.89;1665517;84;20142;-68
2022/01/16 02:37:11;;;;;;;;;;;;;;;0.11;74.60;99600.09;1660824;86;21100;-68
2022/01/16 02:39:37;;;;;;;;;;;;;;;0.11;74.19;99594.16;1660758;85;20112;-68
2022/01/16 02:42:06;;;;;;;;;;;;;;;0.08;73.78;99606.80;1672803;85;20091;-68
2022/01/16 02:44:42;;;;;;;;;;;;;;;0.07;74.68;99611.09;1669573;84;20088;-68
2022/01/16 02:47:02;;;;;;;;;;;;;;;0.08;74.76;99611.38;1676156;85;20427;-68
2022/01/16 02:49:32;;;;;;;;;;;;;;;0.08;74.27;99631.62;1668157;84;21171;-68
2022/01/16 02:52:01;;;;;;;;;;;;;;;0.08;74.49;99628.92;1665493;85;20128;-68
2022/01/16 02:54:28;;;;;;;;;;;;;;;0.08;74.56;99624.88;1674171;85;20180;-68
2022/01/16 02:56:55;;;;;;;;;;;;;;;0.08;74.28;99630.27;1678043;85;20177;-68
2022/01/16 02:59:25;;;;;;;;;;;;;;;0.08;73.79;99634.31;1667788;85;20430;-68
2022/01/16 03:01:49;;;;;;;;;;;;;;;0.07;74.02;99633.50;1679200;84;21197;-68
2022/01/16 03:04:16;;;;;;;;;;;;;;;0.09;74.02;99644.05;1677915;85;20324;-68
2022/01/16 03:06:42;;;;;;;;;;;;;;;0.07;73.69;99642.13;1664781;85;20495;-68
2022/01/16 03:09:09;;;;;;;;;;;;;;;0.05;74.21;99641.02;1669119;85;20093;-69
2022/01/16 03:11:39;;;;;;;;;;;;;;;0.06;74.11;99645.89;1659746;85;20084;-68
2022/01/16 03:14:07;;;;;;;;;;;;;;;0.07;73.69;99655.09;1668285;85;21154;-69
2022/01/16 03:16:35;;;;;;;;;;;;;;;0.07;73.96;99658.33;1675650;85;20087;-68
2022/01/16 03:21:54;;;;;;;;;;;;;;;0.04;73.66;99660.16;1674902;84;20807;-68
2022/01/16 03:24:38;;;;;;;;;;;;;;;0.02;72.78;99650.14;1673271;84;20088;-68
2022/01/16 03:27:08;;;;;;;;;;;;;;;0.00;73.06;99655.81;1670833;85;23374;-68
2022/01/16 03:29:34;;;;;;;;;;;;;;;-0.01;72.47;99653.64;1670845;85;20116;-68
2022/01/16 03:32:01;;;;;;;;;;;;;;;-0.03;72.40;99657.12;1669761;85;20439;-68
2022/01/16 03:34:27;;;;;;;;;;;;;;;-0.06;72.98;99656.26;1675855;85;20222;-68
2022/01/16 03:36:54;;;;;;;;;;;;;;;-0.05;72.95;99659.24;1668750;85;20246;-68
2022/01/16 03:39:20;;;;;;;;;;;;;;;-0.06;72.86;99667.05;1672355;85;20482;-68
2022/01/16 03:41:46;;;;;;;;;;;;;;;-0.06;72.51;99660.30;1663793;85;20144;-68
2022/01/16 03:44:12;;;;;;;;;;;;;;;-0.08;73.31;99662.42;1671246;85;20112;-68
2022/01/16 03:46:40;;;;;;;;;;;;;;;-0.06;72.62;99667.05;1668088;85;20147;-68
2022/01/16 03:49:17;;;;;;;;;;;;;;;-0.08;72.58;99655.68;1668304;85;20121;-67
2022/01/16 03:51:45;;;;;;;;;;;;;;;-0.08;72.37;99655.68;1664968;85;21204;-68
2022/01/16 03:54:12;;;;;;;;;;;;;;;-0.08;72.50;99663.77;1672829;85;20085;-67
2022/01/16 03:56:40;;;;;;;;;;;;;;;-0.09;71.87;99657.27;1671357;85;20133;-68
2022/01/16 03:59:07;;;;;;;;;;;;;;;-0.10;71.75;99665.08;1663944;85;20199;-67
2022/01/16 04:01:33;;;;;;;;;;;;;;;-0.11;72.49;99661.56;1661131;85;20124;-67
2022/01/16 04:04:00;;;;;;;;;;;;;;;-0.09;71.44;99660.79;1654461;84;21136;-67
2022/01/16 04:06:27;;;;;;;;;;;;;;;-0.09;70.85;99652.69;1651149;85;20174;-67
2022/01/16 04:08:54;;;;;;;;;;;;;;;-0.10;71.74;99655.10;1669243;84;20117;-68
2022/01/16 04:11:23;;;;;;;;;;;;;;;-0.10;71.44;99650.23;1672162;84;20154;-68
2022/01/16 04:13:52;;;;;;;;;;;;;;;-0.11;70.76;99653.47;1680785;84;20168;-68
2022/01/16 04:16:19;;;;;;;;;;;;;;;-0.13;70.79;99658.29;1676785;84;21783;-68
2022/01/16 04:18:50;;;;;;;;;;;;;;;-0.13;71.11;99656.94;1666829;84;20123;-71
2022/01/16 04:21:13;;;;;;;;;;;;;;;-0.14;71.14;99658.00;1684903;84;20113;-68
2022/01/16 04:23:40;;;;;;;;;;;;;;;-0.16;71.92;99664.17;1683117;84;20656;-68
2022/01/16 04:26:06;;;;;;;;;;;;;;;-0.17;71.88;99653.09;1675648;84;20109;-68
2022/01/16 04:28:34;;;;;;;;;;;;;;;-0.17;71.97;99658.48;1658086;84;21072;-68
2022/01/16 04:31:00;;;;;;;;;;;;;;;-0.18;72.34;99663.59;1666726;84;20165;-68
2022/01/16 04:33:27;;;;;;;;;;;;;;;-0.18;73.12;99674.92;1680251;84;20169;-68
2022/01/16 04:35:53;;;;;;;;;;;;;;;-0.19;72.50;99670.05;1672556;84;20856;-68
2022/01/16 04:38:19;;;;;;;;;;;;;;;-0.19;72.28;99674.63;1679737;84;20121;-68
2022/01/16 04:43:47;;;;;;;;;;;;;;;-0.18;73.70;99678.97;1668006;84;21144;-68
2022/01/16 04:45:58;;;;;;;;;;;;;;;-0.17;73.40;99674.67;1668180;84;20117;-69
2022/01/16 04:48:26;;;;;;;;;;;;;;;-0.17;72.89;99676.55;1656874;84;20452;-68
2022/01/16 04:50:52;;;;;;;;;;;;;;;-0.19;73.35;99682.72;1659905;86;20131;-68
2022/01/16 04:53:18;;;;;;;;;;;;;;;-0.20;71.83;99680.55;1657750;84;20455;-67
2022/01/16 04:55:46;;;;;;;;;;;;;;;-0.20;72.21;99683.78;1645463;84;20106;-68
2022/01/16 04:58:12;;;;;;;;;;;;;;;-0.22;72.52;99691.30;1617131;86;20191;-68
2022/01/16 05:00:39;;;;;;;;;;;;;;;-0.23;73.06;99691.83;1650152;85;20130;-69
2022/01/16 05:03:05;;;;;;;;;;;;;;;-0.24;72.68;99699.64;1661866;85;20102;-69
2022/01/16 05:05:32;;;;;;;;;;;;;;;-0.26;72.56;99702.28;1654642;85;21163;-70
2022/01/16 05:07:58;;;;;;;;;;;;;;;-0.28;73.62;99705.22;1662671;85;20182;-69
2022/01/16 05:10:24;;;;;;;;;;;;;;;-0.28;72.82;99711.97;1658301;85;20440;-69
2022/01/16 05:12:52;;;;;;;;;;;;;;;-0.27;72.75;99708.74;1651149;85;20094;-69
2022/01/16 05:18:03;;;;;;;;;;;;;;;-0.28;72.12;99709.27;1650686;85;21156;-68
2022/01/16 05:20:30;;;;;;;;;;;;;;;-0.25;71.64;99713.37;1639503;86;20118;-70
2022/01/16 05:22:56;;;;;;;;;;;;;;;-0.26;71.34;99712.55;1661291;85;20185;-70
2022/01/16 05:25:22;;;;;;;;;;;;;;;-0.23;71.64;99715.30;1645517;85;20102;-70
2022/01/16 05:27:49;;;;;;;;;;;;;;;-0.22;70.42;99716.93;1658746;85;20439;-71
2022/01/16 05:30:16;;;;;;;;;;;;;;;-0.25;70.09;99714.19;1653350;86;21129;-70
2022/01/16 05:32:42;;;;;;;;;;;;;;;-0.25;70.92;99712.84;1647591;85;20169;-69
2022/01/16 05:35:09;;;;;;;;;;;;;;;-0.24;70.54;99709.61;1647020;85;20115;-69
2022/01/16 05:37:36;;;;;;;;;;;;;;;-0.25;70.46;99707.97;1661376;85;20142;-70
2022/01/16 05:40:03;;;;;;;;;;;;;;;-0.27;70.31;99714.95;1657676;85;20102;-70
2022/01/16 05:42:32;;;;;;;;;;;;;;;-0.27;71.48;99715.48;1665359;85;21160;-69
2022/01/16 05:44:58;;;;;;;;;;;;;;;-0.28;70.01;99717.89;1662644;85;20272;-70
2022/01/16 05:47:24;;;;;;;;;;;;;;;-0.29;69.56;99710.33;1653850;85;20213;-73
2022/01/16 05:49:50;;;;;;;;;;;;;;;-0.30;69.78;99709.22;1648695;85;20198;-71
2022/01/16 05:52:16;;;;;;;;;;;;;;;-0.29;70.18;99704.94;1642768;86;20154;-70
2022/01/16 05:54:43;;;;;;;;;;;;;;;-0.28;69.68;99717.36;1651966;85;21067;-72
2022/01/16 05:57:09;;;;;;;;;;;;;;;-0.29;69.98;99714.38;1651275;85;20095;-74
2022/01/16 05:59:35;;;;;;;;;;;;;;;-0.29;72.96;99714.91;1655966;85;20493;-74
2022/01/16 06:02:02;;;;;;;;;;;;;;;-0.26;71.31;99715.25;1658768;85;20144;-71
2022/01/16 06:04:28;;;;;;;;;;;;;;;-0.24;70.32;99719.05;1656902;84;20095;-72
2022/01/16 06:06:54;;;;;;;;;;;;;;;-0.26;70.21;99717.13;1656909;85;23327;-74
2022/01/16 06:09:21;;;;;;;;;;;;;;;-0.27;70.74;99712.78;1649839;86;20456;-75
2022/01/16 06:11:47;;;;;;;;;;;;;;;-0.26;69.89;99712.55;1637589;86;20138;-79
2022/01/16 06:14:13;;;;;;;;;;;;;;;-0.27;69.38;99706.05;1654807;86;20130;-77
2022/01/16 06:16:39;;;;;;;;;;;;;;;-0.26;71.02;99722.52;1663535;85;20165;-72
2022/01/16 06:19:07;;;;;;;;;;;;;;;-0.25;70.48;99716.06;1657258;86;21159;-72
2022/01/16 06:21:33;;;;;;;;;;;;;;;-0.25;70.61;99722.81;1652581;85;20662;-74
2022/01/16 06:23:59;;;;;;;;;;;;;;;-0.25;71.64;99722.81;1651163;86;20440;-73
2022/01/16 06:26:26;;;;;;;;;;;;;;;-0.25;71.09;99716.06;1649872;85;20160;-73
2022/01/16 06:28:52;;;;;;;;;;;;;;;-0.25;71.13;99725.51;1652436;85;20191;-73
2022/01/16 06:31:18;;;;;;;;;;;;;;;-0.28;71.11;99730.03;1654367;85;21080;-73
2022/01/16 06:33:44;;;;;;;;;;;;;;;-0.30;71.29;99731.63;1656344;86;20177;-72
2022/01/16 06:36:11;;;;;;;;;;;;;;;-0.29;71.37;99728.40;1645816;86;20098;-73
2022/01/16 06:38:37;;;;;;;;;;;;;;;-0.28;71.15;99728.16;1654152;84;20134;-74
2022/01/16 06:41:03;;;;;;;;;;;;;;;-0.30;70.27;99724.88;1656622;85;20093;-72
2022/01/16 06:43:30;;;;;;;;;;;;;;;-0.25;70.68;99729.03;1645369;86;21967;-76
2022/01/16 06:45:56;;;;;;;;;;;;;;;-0.22;69.63;99735.82;1650538;86;20441;-72
2022/01/16 06:48:23;;;;;;;;;;;;;;;-0.22;69.12;99733.13;1658352;85;20126;-79
2022/01/16 06:50:49;;;;;;;;;;;;;;;-0.24;69.91;99737.41;1654635;85;20129;-78
2022/01/16 06:53:16;;;;;;;;;;;;;;;-0.21;70.27;99732.88;1659094;86;20153;-73
2022/01/16 06:55:42;;;;;;;;;;;;;;;-0.18;72.76;99744.55;1656184;85;21126;-75
2022/01/16 06:58:08;;;;;;;;;;;;;;;-0.14;71.03;99739.48;1649601;86;20450;-76
2022/01/16 07:00:34;;;;;;;;;;;;;;;-0.15;71.83;99738.66;1651503;86;20130;-73
2022/01/16 07:03:00;;;;;;;;;;;;;;;-0.15;71.72;99740.02;1655918;85;20110;-74
2022/01/16 07:05:27;;;;;;;;;;;;;;;-0.16;71.73;99745.66;1653325;85;20173;-71
2022/01/16 07:07:54;;;;;;;;;;;;;;;-0.19;72.17;99746.13;1653648;85;21072;-75
2022/01/16 07:10:30;;;;;;;;;;;;;;;-0.15;72.76;99748.11;1819171;79;20148;-73
2022/01/16 07:12:56;;;;;;;;;;;;;;;-0.17;72.48;99753.45;1791535;80;20419;-80
2022/01/16 07:15:23;;;;;;;;;;;;;;;-0.16;71.90;99759.96;1792269;80;21108;-78
2022/01/16 07:17:49;;;;;;;;;;;;;;;-0.16;72.33;99762.66;1792267;80;20700;-75
2022/01/16 07:20:16;;;;;;;;;;;;;;;-0.14;70.70;99760.54;1792256;80;20427;-77
2022/01/16 07:22:43;;;;;;;;;;;;;;;-0.14;69.79;99761.07;1792343;80;20147;-74
2022/01/16 07:25:11;;;;;;;;;;;;;;;-0.13;69.82;99762.18;1791435;80;20441;-71
2022/01/16 07:27:38;;;;;;;;;;;;;;;-0.12;69.08;99760.30;1789907;80;21123;-72
2022/01/16 07:30:05;;;;;;;;;;;;;;;-0.12;67.59;99756.25;1789991;80;20118;-74
2022/01/16 07:32:32;;;;;;;;;;;;;;;-0.12;67.38;99763.82;1789941;80;20168;-80
2022/01/16 07:34:58;;;;;;;;;;;;;;;-0.07;67.81;99769.84;1790073;80;20114;-80
2022/01/16 07:37:25;;;;;;;;;;;;;;;-0.06;66.28;99762.86;1775083;80;20112;-75
2022/01/16 07:39:51;;;;;;;;;;;;;;;-0.05;66.64;99767.20;1767283;80;21142;-78
2022/01/16 07:42:18;;;;;;;;;;;;;;;0.00;67.72;99779.41;1763516;80;20084;-78
2022/01/16 07:44:44;;;;;;;;;;;;;;;0.03;66.20;99776.75;1757791;81;20111;-78
2022/01/16 07:47:10;;;;;;;;;;;;;;;0.03;66.26;99774.59;1785109;80;20490;-77
2022/01/16 07:49:37;;;;;;;;;;;;;;;0.01;67.50;99773.48;1787153;80;20088;-77
2022/01/16 07:52:04;;;;;;;;;;;;;;;0.04;67.33;99766.25;1787811;80;21113;-76
2022/01/16 07:54:31;;;;;;;;;;;;;;;0.05;66.83;99760.32;1786767;80;20108;-70
2022/01/16 07:56:57;;;;;;;;;;;;;;;0.06;67.41;99765.48;1787424;80;20494;-68
2022/01/16 07:59:23;;;;;;;;;;;;;;;0.08;68.64;99763.36;1788129;80;20140;-68
2022/01/16 08:01:49;;;;;;;;;;;;;;;0.11;68.35;99762.05;1788281;80;20081;-70
2022/01/16 08:04:16;;;;;;;;;;;;;;;0.14;68.16;99765.63;1788255;80;21201;-81
2022/01/16 08:06:43;;;;;;;;;;;;;;;0.17;67.05;99769.19;1775636;80;20102;-69
2022/01/16 08:09:09;;;;;;;;;;;;;;;0.18;67.33;99772.17;1763230;80;20181;-68
2022/01/16 08:11:36;;;;;;;;;;;;;;;0.20;67.11;99779.50;1774548;80;20078;-69
2022/01/16 08:14:02;;;;;;;;;;;;;;;0.19;66.90;99778.69;1771972;80;20152;-69
2022/01/16 08:16:28;;;;;;;;;;;;;;;0.17;67.24;99784.85;1765759;79;21098;-69
2022/01/16 08:18:55;;;;;;;;;;;;;;;0.15;66.85;99786.98;1758193;79;20140;-69
2022/01/16 08:21:21;;;;;;;;;;;;;;;0.12;66.92;99782.06;1763387;79;20507;-72
2022/01/16 08:23:47;;;;;;;;;;;;;;;0.12;68.30;99779.89;1759351;80;20154;-69
2022/01/16 08:26:13;;;;;;;;;;;;;;;0.14;68.19;99775.06;1789733;79;20162;-73
2022/01/16 08:28:40;;;;;;;;;;;;;;;0.13;67.85;99779.64;1745924;80;21079;-68
2022/01/16 08:31:06;;;;;;;;;;;;;;;0.09;67.51;99778.49;1776743;80;21560;-68
2022/01/16 08:33:35;;;;;;;;;;;;;;;0.08;67.69;99777.38;1780696;80;20430;-69
2022/01/16 08:36:03;;;;;;;;;;;;;;;0.06;67.59;99783.02;1780171;80;20114;-68
2022/01/16 08:38:30;;;;;;;;;;;;;;;0.08;67.55;99789.53;1780242;80;20122;-67
2022/01/16 08:40:56;;;;;;;;;;;;;;;0.10;67.57;99797.67;1780065;80;21060;-68
2022/01/16 08:43:24;;;;;;;;;;;;;;;0.13;66.35;99782.88;1779564;80;20125;-70
2022/01/16 08:45:50;;;;;;;;;;;;;;;0.15;65.07;99795.08;1779570;80;20480;-68
2022/01/16 08:48:20;;;;;;;;;;;;;;;0.13;63.78;99795.03;1779678;80;20162;-69
2022/01/16 08:50:45;;;;;;;;;;;;;;;0.13;64.62;99773.43;1765259;79;20144;-69
2022/01/16 08:53:11;;;;;;;;;;;;;;;0.16;64.37;99783.75;1761306;81;21195;-69
2022/01/16 08:55:37;;;;;;;;;;;;;;;0.17;62.99;99784.03;1761768;81;20146;-70
2022/01/16 08:58:03;;;;;;;;;;;;;;;0.16;63.94;99789.14;1761653;81;20423;-72
2022/01/16 09:00:31;;;;;;;;;;;;;;;0.13;62.46;99768.03;1761418;81;20137;-73
2022/01/16 09:02:59;;;;;;;;;;;;;;;0.06;62.08;99764.13;1777380;79;20452;-73
2022/01/16 09:05:26;;;;;;;;;;;;;;;0.02;62.88;99763.50;1779875;80;21023;-71
2022/01/16 09:07:53;;;;;;;;;;;;;;;0.00;64.08;99777.27;1779756;80;20610;-74
2022/01/16 09:10:20;;;;;;;;;;;;;;;0.00;63.61;99771.87;1775606;80;20190;-78
2022/01/16 09:12:46;;;;;;;;;;;;;;;-0.02;63.59;99773.46;1773649;80;20141;-71
2022/01/16 09:15:13;;;;;;;;;;;;;;;-0.03;64.44;99766.42;1773914;81;20160;-71
2022/01/16 09:17:40;;;;;;;;;;;;;;;-0.02;63.85;99761.84;1749108;80;21779;-72
2022/01/16 09:20:09;;;;;;;;;;;;;;;-0.06;65.67;99762.03;1743145;82;21244;-70
2022/01/16 09:22:37;;;;;;;;;;;;;;;-0.05;64.50;99758.28;1743197;82;20132;-67
2022/01/16 09:25:05;;;;;;;;;;;;;;;-0.03;67.00;99763.73;1742786;82;20404;-70
2022/01/16 09:27:33;;;;;;;;;;;;;;;0.00;64.54;99763.77;1743260;82;20156;-71
2022/01/16 09:29:59;;;;;;;;;;;;;;;-0.01;65.31;99754.86;1742904;82;21150;-70
2022/01/16 09:32:26;;;;;;;;;;;;;;;0.00;64.30;99753.77;1743117;82;21531;-72
2022/01/16 09:34:52;;;;;;;;;;;;;;;-0.01;63.78;99748.11;1743051;82;20470;-72
2022/01/16 09:37:18;;;;;;;;;;;;;;;-0.03;63.95;99743.48;1743070;82;20143;-71
2022/01/16 09:39:45;;;;;;;;;;;;;;;-0.03;63.97;99743.48;1743187;82;20168;-71
2022/01/16 09:42:11;;;;;;;;;;;;;;;-0.04;63.26;99744.55;1743007;82;21797;-70
2022/01/16 09:44:38;;;;;;;;;;;;;;;-0.07;63.15;99746.91;1722166;82;20078;-70
2022/01/16 09:47:05;;;;;;;;;;;;;;;-0.10;62.76;99736.06;1742733;81;20104;-72
2022/01/16 09:49:31;;;;;;;;;;;;;;;-0.12;62.87;99736.83;1742739;82;20172;-71
2022/01/16 09:51:58;;;;;;;;;;;;;;;-0.13;62.94;99733.84;1743251;82;20117;-83
2022/01/16 09:54:24;;;;;;;;;;;;;;;-0.12;62.68;99722.52;1743130;82;21113;-72
2022/01/16 09:56:51;;;;;;;;;;;;;;;-0.09;64.50;99740.40;1743322;81;20436;-71
2022/01/16 09:59:17;;;;;;;;;;;;;;;-0.06;62.35;99732.35;1742213;81;20583;-71
2022/01/16 10:01:43;;;;;;;;;;;;;;;-0.05;61.91;99731.30;1742636;81;20097;-71
2022/01/16 10:04:35;;;;;;;;;;;;;;;-0.04;62.42;99729.70;1743169;82;20166;-70
2022/01/16 10:07:10;;;;;;;;;;;;;;;0.02;64.55;99727.06;1707844;84;21167;-71
2022/01/16 10:09:38;;;;;;;;;;;;;;;0.07;61.53;99721.76;1707535;83;20194;-70
2022/01/16 10:12:14;;;;;;;;;;;;;;;0.06;60.60;99732.27;1726842;81;20443;-70
2022/01/16 10:14:37;;;;;;;;;;;;;;;0.05;61.10;99729.28;1751014;81;20167;-70
2022/01/16 10:17:17;;;;;;;;;;;;;;;0.04;60.70;99719.02;1768008;80;20119;-71
2022/01/16 10:19:43;;;;;;;;;;;;;;;0.06;60.63;99729.56;1782441;80;21046;-70
2022/01/16 10:22:11;;;;;;;;;;;;;;;0.09;60.79;99727.20;1782211;80;20193;-70
2022/01/16 10:24:39;;;;;;;;;;;;;;;0.14;61.50;99734.58;1782234;80;20114;-70
2022/01/16 10:27:17;;;;;;;;;;;;;;;0.18;60.63;99725.75;1782522;80;20154;-70
2022/01/16 10:29:49;;;;;;;;;;;;;;;0.18;60.44;99732.50;1782295;80;20142;-72
2022/01/16 10:32:20;;;;;;;;;;;;;;;0.18;61.25;99727.63;1770802;80;21159;-70
2022/01/16 10:34:49;;;;;;;;;;;;;;;0.19;61.44;99727.91;1751454;82;20144;-70
2022/01/16 10:37:30;;;;;;;;;;;;;;;0.20;60.53;99714.70;1750808;82;20424;-70
2022/01/16 10:40:14;;;;;;;;;;;;;;;0.21;61.70;99714.46;1751823;82;20164;-70
2022/01/16 10:42:41;;;;;;;;;;;;;;;0.23;61.22;99712.87;1751726;81;20193;-70
2022/01/16 10:45:14;;;;;;;;;;;;;;;0.24;60.61;99713.97;1751403;82;23260;-70
2022/01/16 10:47:51;;;;;;;;;;;;;;;0.28;61.05;99710.25;1751346;82;20116;-70
2022/01/16 10:50:20;;;;;;;;;;;;;;;0.32;61.47;99699.25;1751869;82;20200;-70
2022/01/16 10:52:50;;;;;;;;;;;;;;;0.35;61.17;99699.30;1750359;82;20188;-70
2022/01/16 10:55:16;;;;;;;;;;;;;;;0.35;61.57;99704.16;1752144;82;20275;-70
2022/01/16 10:57:42;;;;;;;;;;;;;;;0.37;62.77;99688.53;1751446;82;21053;-71
2022/01/16 11:00:17;;;;;;;;;;;;;;;0.39;62.33;99689.11;1751710;82;20108;-70
2022/01/16 11:02:49;;;;;;;;;;;;;;;0.38;61.33;99692.88;1751606;82;20174;-70
2022/01/16 11:05:18;;;;;;;;;;;;;;;0.35;61.73;99687.96;1751741;82;20112;-70
2022/01/16 11:07:45;;;;;;;;;;;;;;;0.34;62.73;99691.72;1750727;82;20180;-70
2022/01/16 11:10:21;;;;;;;;;;;;;;;0.33;61.78;99688.73;1750389;82;20376;-71
2022/01/16 11:12:49;;;;;;;;;;;;;;;0.33;62.04;99690.09;1748172;82;20943;-70
2022/01/16 11:15:16;;;;;;;;;;;;;;;0.30;62.66;99690.58;1765582;80;20097;-70
2022/01/16 11:17:43;;;;;;;;;;;;;;;0.31;62.30;99685.46;1753728;80;20179;-70
2022/01/16 11:20:10;;;;;;;;;;;;;;;0.26;61.67;99691.59;1748565;82;20157;-70
2022/01/16 11:22:56;;;;;;;;;;;;;;;0.20;60.96;99683.66;1748897;80;21158;-70
2022/01/16 11:25:22;;;;;;;;;;;;;;;0.16;61.01;99701.41;1745991;81;20628;-70
2022/01/16 11:27:34;;;;;;;;;;;;;;;0.16;62.18;99697.36;1764900;80;20148;-69
2022/01/16 11:30:00;;;;;;;;;;;;;;;0.18;61.30;99695.23;1748830;80;20170;-71
2022/01/16 11:32:26;;;;;;;;;;;;;;;0.16;61.80;99692.77;1777598;80;20454;-70
2022/01/16 11:34:52;;;;;;;;;;;;;;;0.13;61.38;99688.39;1777761;80;21142;-70
2022/01/16 11:37:19;;;;;;;;;;;;;;;0.08;61.35;99676.97;1777764;80;20166;-70
2022/01/16 11:39:45;;;;;;;;;;;;;;;0.04;61.65;99685.80;1777731;80;20452;-71
2022/01/16 11:42:20;;;;;;;;;;;;;;;0.00;61.89;99688.98;1777814;80;20160;-71
2022/01/16 11:44:44;;;;;;;;;;;;;;;-0.03;61.39;99677.89;1776889;80;20172;-71
2022/01/16 11:47:10;;;;;;;;;;;;;;;-0.09;61.21;99684.26;1776399;80;23275;-72
2022/01/16 11:49:41;;;;;;;;;;;;;;;-0.12;62.11;99684.74;1724730;80;20592;-71
2022/01/16 11:52:15;;;;;;;;;;;;;;;-0.12;62.00;99682.05;1776889;80;20149;-71
2022/01/16 11:54:45;;;;;;;;;;;;;;;-0.15;61.95;99684.70;1777226;80;20149;-70
2022/01/16 11:57:21;;;;;;;;;;;;;;;-0.18;62.07;99681.13;1777809;80;20175;-71
2022/01/16 11:59:49;;;;;;;;;;;;;;;-0.20;62.46;99683.78;1778158;80;21117;-70
2022/01/16 12:02:18;;;;;;;;;;;;;;;-0.22;62.74;99685.38;1777102;80;20608;-70
2022/01/16 12:04:49;;;;;;;;;;;;;;;-0.24;62.40;99679.41;1778341;80;20215;-69
2022/01/16 12:07:21;;;;;;;;;;;;;;;-0.25;62.46;99676.95;1778910;80;20093;-70
2022/01/16 12:12:22;;;;;;;;;;;;;;;-0.21;63.00;99672.70;1763486;81;21081;-70
2022/01/16 12:15:08;;;;;;;;;;;;;;;-0.16;63.17;99671.45;1754722;81;20104;-70
2022/01/16 12:17:44;;;;;;;;;;;;;;;-0.12;62.97;99673.42;1759118;80;20098;-70
2022/01/16 12:20:18;;;;;;;;;;;;;;;-0.10;63.16;99667.78;1765069;81;20225;-70
2022/01/16 12:23:08;;;;;;;;;;;;;;;-0.09;62.89;99650.00;1764877;81;20460;-69
2022/01/16 12:25:37;;;;;;;;;;;;;;;-0.10;62.94;99658.33;1765151;81;21741;-70
2022/01/16 12:28:13;;;;;;;;;;;;;;;-0.13;62.14;99666.38;1764551;80;20097;-70
2022/01/16 12:30:58;;;;;;;;;;;;;;;-0.14;62.53;99670.67;1759178;81;20128;-70
2022/01/16 12:33:30;;;;;;;;;;;;;;;-0.15;62.70;99662.30;1752296;81;20137;-70
2022/01/16 12:36:00;;;;;;;;;;;;;;;-0.15;63.12;99661.76;1751889;81;20494;-69
2022/01/16 12:38:31;;;;;;;;;;;;;;;-0.10;63.58;99667.25;1752378;81;21117;-69
2022/01/16 12:41:12;;;;;;;;;;;;;;;-0.09;62.42;99663.48;1736843;82;20120;-69
2022/01/16 12:43:41;;;;;;;;;;;;;;;-0.08;62.75;99667.83;1752349;82;20152;-69
2022/01/16 12:46:10;;;;;;;;;;;;;;;-0.07;63.71;99669.46;1752625;82;20177;-69
2022/01/16 12:48:46;;;;;;;;;;;;;;;-0.03;63.14;99662.52;1750916;81;20160;-69
2022/01/16 12:51:15;;;;;;;;;;;;;;;-0.06;62.70;99675.67;1752534;81;21126;-70
2022/01/16 12:53:45;;;;;;;;;;;;;;;-0.10;62.96;99675.34;1752105;81;20464;-70
2022/01/16 12:56:18;;;;;;;;;;;;;;;-0.13;62.73;99679.88;1751343;81;20096;-69
2022/01/16 12:58:44;;;;;;;;;;;;;;;-0.13;63.17;99687.16;1752104;81;20192;-70
2022/01/16 13:01:10;;;;;;;;;;;;;;;-0.14;62.98;99685.52;1752625;82;20116;-70
2022/01/16 13:03:37;;;;;;;;;;;;;;;-0.13;63.53;99687.16;1752213;82;21983;-70
2022/01/16 13:06:21;;;;;;;;;;;;;;;-0.16;63.14;99679.55;1752637;81;20097;-69
2022/01/16 13:09:05;;;;;;;;;;;;;;;-0.20;62.94;99683.25;1751988;81;20073;-70
2022/01/16 13:11:37;;;;;;;;;;;;;;;-0.25;64.19;99672.37;1752159;81;20204;-70
2022/01/16 13:14:05;;;;;;;;;;;;;;;-0.27;63.78;99677.72;1752127;81;20149;-70
2022/01/16 13:16:34;;;;;;;;;;;;;;;-0.29;63.85;99673.91;1752556;81;21111;-70
2022/01/16 13:19:07;;;;;;;;;;;;;;;-0.30;64.12;99680.90;1752085;82;20136;-70
2022/01/16 13:22:04;;;;;;;;;;;;;;;-0.32;66.25;99676.27;1752366;81;20096;-70
2022/01/16 13:24:53;;;;;;;;;;;;;;;-0.31;64.81;99673.34;1752345;82;20141;-69
2022/01/16 13:27:22;;;;;;;;;;;;;;;-0.29;64.93;99679.84;1752640;82;20204;-70
2022/01/16 13:30:00;;;;;;;;;;;;;;;-0.27;65.32;99670.44;1751845;81;21974;-70
2022/01/16 13:32:29;;;;;;;;;;;;;;;-0.23;65.19;99662.69;1752452;82;20490;-70
2022/01/16 13:34:55;;;;;;;;;;;;;;;-0.24;64.44;99660.52;1751865;81;20116;-70